.
WxDataArchive / Data Records for 2007-01-19
2007-01-18 January 2007 2007-01-20

Data Records for Friday, 19 January 2007

Time	Temp	Chill	HIndex	Humid	Dewpt	 Wind 	HiWind	WindDir	Rain 	Barom 
-----	----	-----	------	-----	-----	------	------	-------	-----	----- 
00:00	31.0	26.9	31.0	85	27.0	4	10	270	0.00	29.979 
00:05	31.0	25.9	31.0	85	27.0	5	11	270	0.00	29.980 
00:10	31.0	25.9	31.0	85	27.0	5	11	248	0.00	29.980 
00:15	31.0	25.9	31.0	85	27.0	5	13	270	0.00	29.979 
00:20	31.0	25.9	31.0	84	26.7	5	13	270	0.00	29.980 
00:25	31.0	25.9	31.0	84	26.7	5	12	270	0.00	29.980 
00:30	31.0	25.9	31.0	84	26.7	5	12	270	0.00	29.982 
00:35	31.2	27.2	31.2	84	26.9	4	11	270	0.00	29.983 
00:40	31.2	27.2	31.2	84	26.9	4	13	270	0.00	29.986 
00:45	31.0	26.9	31.0	84	26.7	4	12	270	0.00	29.989 
00:50	31.0	31.0	31.0	84	26.7	3	7	270	0.00	29.984 
00:55	31.0	25.9	31.0	84	26.7	5	10	270	0.00	29.986 
01:00	31.0	25.0	31.0	84	26.7	6	14	270	0.00	29.988 
01:05	30.7	25.5	30.7	85	26.7	5	16	270	0.00	29.995 
01:10	30.4	24.3	30.4	86	26.7	6	13	270	0.00	29.993 
01:15	30.3	25.1	30.3	80	24.9	5	10	270	0.00	29.994 
01:20	30.1	24.8	30.1	80	24.7	5	10	270	0.00	29.995 
01:25	29.8	24.5	29.8	80	24.4	5	11	270	0.00	29.998 
01:30	29.7	25.4	29.7	81	24.6	4	10	270	0.00	30.000 
01:35	29.7	24.4	29.7	81	24.6	5	16	270	0.00	30.003 
01:40	29.7	29.7	29.7	81	24.6	3	7	270	0.00	30.001 
01:45	29.5	25.2	29.5	81	24.4	4	12	270	0.00	30.008 
01:50	29.5	25.2	29.5	80	24.1	4	13	270	0.00	30.012 
01:55	29.4	24.0	29.4	80	24.0	5	15	270	0.00	30.012 
02:00	29.4	24.0	29.4	80	24.0	5	15	270	0.00	30.010 
02:05	29.3	23.9	29.3	79	23.6	5	14	270	0.00	30.011 
02:10	29.3	25.0	29.3	79	23.6	4	9	270	0.00	30.012 
02:15	29.1	24.7	29.1	80	23.7	4	12	270	0.00	30.016 
02:20	29.1	24.7	29.1	80	23.7	4	9	270	0.00	30.017 
02:25	29.1	24.7	29.1	80	23.7	4	9	270	0.00	30.016 
02:30	29.1	23.7	29.1	80	23.7	5	12	270	0.00	30.014 
02:35	29.0	22.7	29.0	79	23.3	6	14	270	0.00	30.016 
02:40	29.0	23.6	29.0	80	23.6	5	12	270	0.00	30.016 
02:45	28.8	23.3	28.8	80	23.4	5	12	270	0.00	30.023 
02:50	28.8	24.4	28.8	80	23.4	4	12	270	0.00	30.025 
02:55	28.8	24.4	28.8	80	23.4	4	11	270	0.00	30.028 
03:00	28.7	24.3	28.7	80	23.3	4	11	270	0.00	30.030 
03:05	28.7	23.2	28.7	80	23.3	5	12	270	0.00	30.030 
03:10	28.7	28.7	28.7	80	23.3	3	7	270	0.00	30.031 
03:15	28.5	24.0	28.5	80	23.1	4	11	270	0.00	30.035 
03:20	28.5	24.0	28.5	80	23.1	4	10	270	0.00	30.042 
03:25	28.5	28.5	28.5	80	23.1	3	6	270	0.00	30.042 
03:30	28.4	23.9	28.4	79	22.7	4	10	270	0.00	30.041 
03:35	28.2	28.2	28.2	79	22.5	3	11	270	0.00	30.044 
03:40	28.2	23.7	28.2	78	22.2	4	12	270	0.00	30.049 
03:45	28.2	23.7	28.2	78	22.2	4	10	270	0.00	30.048 
03:50	28.1	23.6	28.1	78	22.1	4	9	270	0.00	30.047 
03:55	28.1	28.1	28.1	78	22.1	3	6	270	0.00	30.046 
04:00	28.1	28.1	28.1	78	22.1	3	8	270	0.00	30.047 
04:05	27.9	23.3	27.9	78	21.9	4	11	270	0.00	30.047 
04:10	27.9	22.3	27.9	78	21.9	5	14	270	0.00	30.048 
04:15	27.8	23.2	27.8	78	21.8	4	14	270	0.00	30.051 
04:20	27.8	21.2	27.8	78	21.8	6	14	270	0.00	30.051 
04:25	27.6	23.0	27.6	78	21.7	4	14	270	0.00	30.050 
04:30	27.6	27.6	27.6	78	21.7	3	7	270	0.00	30.055 
04:35	27.5	21.8	27.5	78	21.6	5	11	270	0.00	30.059 
04:40	27.5	21.8	27.5	78	21.6	5	18	270	0.00	30.063 
04:45	27.3	19.8	27.3	77	21.1	7	17	270	0.00	30.071 
04:50	27.2	21.4	27.2	78	21.3	5	14	270	0.00	30.077 
04:55	27.2	22.5	27.2	78	21.3	4	10	270	0.00	30.073 
05:00	27.0	21.2	27.0	78	21.1	5	11	270	0.00	30.066 
05:05	26.9	21.1	26.9	78	21.0	5	11	270	0.00	30.065 
05:10	26.9	22.2	26.9	79	21.3	4	7	270	0.00	30.067 
05:15	26.9	21.1	26.9	79	21.3	5	9	270	0.00	30.067 
05:20	26.9	21.1	26.9	79	21.3	5	12	270	0.00	30.067 
05:25	26.9	26.9	26.9	79	21.3	3	12	248	0.00	30.067 
05:30	26.9	22.2	26.9	79	21.3	4	11	270	0.00	30.067 
05:35	26.9	21.1	26.9	79	21.3	5	15	270	0.00	30.076 
05:40	26.9	22.2	26.9	80	21.6	4	11	270	0.00	30.071 
05:45	26.9	26.9	26.9	80	21.6	3	11	270	0.00	30.075 
05:50	26.9	21.1	26.9	80	21.6	5	11	270	0.00	30.076 
05:55	26.9	21.1	26.9	80	21.6	5	11	270	0.00	30.075 
06:00	26.7	22.0	26.7	80	21.4	4	13	270	0.00	30.078 
06:05	26.7	22.0	26.7	80	21.4	4	10	248	0.00	30.082 
06:10	26.7	22.0	26.7	80	21.4	4	13	270	0.00	30.082 
06:15	26.7	22.0	26.7	80	21.4	4	13	270	0.00	30.081 
06:20	26.7	22.0	26.7	80	21.4	4	13	270	0.00	30.082 
06:25	26.7	26.7	26.7	80	21.4	3	11	270	0.00	30.082 
06:30	26.6	26.6	26.6	80	21.3	3	6	270	0.00	30.082 
06:35	26.6	26.6	26.6	80	21.3	2	9	270	0.00	30.089 
06:40	26.6	26.6	26.6	80	21.3	3	11	270	0.00	30.093 
06:45	26.6	26.6	26.6	80	21.3	3	7	270	0.00	30.097 
06:50	26.4	20.5	26.4	79	20.8	5	13	270	0.00	30.098 
06:55	26.6	21.8	26.6	80	21.3	4	11	270	0.00	30.102 
07:00	26.4	21.6	26.4	80	21.1	4	12	270	0.00	30.106 
07:05	26.4	26.4	26.4	80	21.1	3	5	270	0.00	30.109 
07:10	26.4	21.6	26.4	80	21.1	4	11	270	0.00	30.113 
07:15	26.4	26.4	26.4	81	21.4	3	8	270	0.00	30.113 
07:20	26.4	21.6	26.4	81	21.4	4	9	270	0.00	30.114 
07:25	26.4	26.4	26.4	81	21.4	3	9	270	0.00	30.114 
07:30	26.4	26.4	26.4	80	21.1	2	6	270	0.00	30.118 
07:35	26.4	26.4	26.4	79	20.8	3	9	270	0.00	30.125 
07:40	26.6	26.6	26.6	78	20.7	3	7	270	0.00	30.128 
07:45	26.6	26.6	26.6	79	21.0	3	6	270	0.00	30.130 
07:50	26.6	26.6	26.6	78	20.7	3	11	270	0.00	30.133 
07:55	26.4	26.4	26.4	79	20.8	3	11	270	0.00	30.133 
08:00	26.3	26.3	26.3	80	21.0	3	7	270	0.00	30.136 
08:05	26.3	26.3	26.3	80	21.0	3	10	270	0.00	30.140 
08:10	26.1	21.3	26.1	80	20.8	4	17	270	0.00	30.141 
08:15	26.1	21.3	26.1	79	20.5	4	10	270	0.00	30.143 
08:20	26.1	21.3	26.1	79	20.5	4	6	270	0.00	30.145 
08:25	26.1	21.3	26.1	79	20.5	4	11	270	0.00	30.147 
08:30	26.0	20.0	26.0	79	20.4	5	14	270	0.00	30.147 
08:35	26.0	21.1	26.0	80	20.7	4	10	270	0.00	30.147 
08:40	26.0	26.0	26.0	80	20.7	2	6	270	0.00	30.149 
08:45	26.0	21.1	26.0	79	20.4	4	13	270	0.00	30.147 
08:50	26.0	21.1	26.0	79	20.4	4	10	270	0.00	30.149 
08:55	26.0	21.1	26.0	78	20.1	4	11	270	0.00	30.149 
09:00	26.0	21.1	26.0	78	20.1	4	7	270	0.00	30.149 
09:05	26.0	21.1	26.0	78	20.1	4	15	270	0.00	30.150 
09:10	26.0	20.0	26.0	77	19.8	5	10	270	0.00	30.151 
09:15	26.0	26.0	26.0	77	19.8	3	11	270	0.00	30.150 
09:20	26.0	26.0	26.0	77	19.8	3	11	270	0.00	30.150 
09:25	26.0	21.1	26.0	77	19.8	4	7	270	0.00	30.155 
09:30	26.1	26.1	26.1	77	19.9	3	7	270	0.00	30.159 
09:35	26.0	26.0	26.0	77	19.8	2	9	248	0.00	30.159 
09:40	25.8	19.8	25.8	77	19.6	5	15	270	0.00	30.162 
09:45	26.1	26.1	26.1	77	19.9	3	11	270	0.00	30.163 
09:50	26.4	26.4	26.4	77	20.2	3	6	270	0.00	30.163 
09:55	26.6	21.8	26.6	74	19.5	4	12	270	0.00	30.162 
10:00	26.4	21.6	26.4	75	19.6	4	10	270	0.00	30.162 
10:05	26.6	21.8	26.6	74	19.5	4	10	270	0.00	30.162 
10:10	26.6	20.7	26.6	74	19.5	5	12	270	0.00	30.164 
10:15	26.6	19.8	26.6	73	19.1	6	14	270	0.00	30.164 
10:20	26.6	19.8	26.6	73	19.1	6	13	270	0.00	30.164 
10:25	26.7	19.9	26.7	73	19.2	6	12	270	0.00	30.167 
10:30	27.0	22.3	27.0	73	19.5	4	9	270	0.00	30.170 
10:35	27.5	27.5	27.5	71	19.4	3	11	270	0.00	30.171 
10:40	27.3	22.6	27.3	72	19.5	4	13	270	0.00	30.176 
10:45	27.2	21.4	27.2	71	19.1	5	13	270	0.00	30.178 
10:50	27.3	21.6	27.3	70	18.8	5	14	270	0.00	30.178 
10:55	27.6	23.0	27.6	71	19.4	4	11	270	0.00	30.178 
11:00	27.5	21.8	27.5	70	19.0	5	13	270	0.00	30.185 
11:05	27.2	21.4	27.2	71	19.1	5	10	270	0.00	30.189 
11:10	27.0	20.3	27.0	71	18.9	6	12	270	0.00	30.192 
11:15	26.4	18.7	26.4	69	17.6	7	13	270	0.00	30.191 
11:20	26.3	21.5	26.3	70	17.9	4	9	270	0.00	30.193 
11:25	26.4	26.4	26.4	71	18.3	3	6	270	0.00	30.195 
11:30	26.6	26.6	26.6	72	18.8	3	6	270	0.00	30.192 
11:35	26.7	22.0	26.7	71	18.6	4	12	270	0.00	30.191 
11:40	26.7	19.9	26.7	69	17.9	6	17	270	0.00	30.193 
11:45	26.6	19.8	26.6	69	17.8	6	13	270	0.00	30.193 
11:50	26.9	20.2	26.9	69	18.1	6	14	270	0.00	30.189 
11:55	26.9	21.1	26.9	68	17.8	5	12	270	0.00	30.191 
12:00	26.7	22.0	26.7	70	18.3	4	11	270	0.00	30.189 
12:05	27.2	27.2	27.2	69	18.4	3	11	270	0.00	30.182 
12:10	27.2	22.5	27.2	68	18.1	4	10	270	0.00	30.177 
12:15	27.5	22.9	27.5	69	18.7	4	10	248	0.00	30.176 
12:20	27.9	22.3	27.9	66	18.0	5	11	270	0.00	30.168 
12:25	28.2	28.2	28.2	67	18.7	3	8	270	0.00	30.166 
12:30	28.5	28.5	28.5	66	18.6	3	8	270	0.00	30.162 
12:35	28.2	23.7	28.2	64	17.6	4	10	270	0.00	30.159 
12:40	27.3	22.6	27.3	65	17.1	4	9	270	0.00	30.161 
12:45	26.9	22.2	26.9	66	17.1	4	10	270	0.00	30.161 
12:50	27.2	27.2	27.2	66	17.4	3	7	270	0.00	30.161 
12:55	27.0	22.3	27.0	66	17.2	4	6	270	0.00	30.158 
13:00	27.2	21.4	27.2	65	17.0	5	13	270	0.00	30.157 
13:05	27.5	22.9	27.5	65	17.3	4	9	270	0.00	30.160 
13:10	27.2	22.5	27.2	65	17.0	4	13	270	0.00	30.160 
13:15	26.7	20.9	26.7	65	16.5	5	14	270	0.00	30.154 
13:20	27.3	22.6	27.3	66	17.5	4	11	270	0.00	30.152 
13:25	27.8	23.2	27.8	64	17.2	4	10	270	0.00	30.151 
13:30	27.2	21.4	27.2	65	17.0	5	13	248	0.00	30.151 
13:35	26.7	22.0	26.7	65	16.5	4	11	270	0.00	30.149 
13:40	26.9	21.1	26.9	66	17.1	5	15	270	0.00	30.148 
13:45	27.3	20.6	27.3	65	17.1	6	12	270	0.00	30.143 
13:50	27.5	21.8	27.5	65	17.3	5	14	270	0.00	30.140 
13:55	27.9	22.3	27.9	63	17.0	5	17	270	0.00	30.137 
14:00	28.1	21.6	28.1	64	17.5	6	17	270	0.00	30.135 
14:05	28.4	22.8	28.4	65	18.2	5	17	270	0.00	30.140 
14:10	28.5	22.1	28.5	64	17.9	6	12	270	0.00	30.142 
14:15	28.5	22.1	28.5	64	17.9	6	12	270	0.00	30.146 
14:20	28.4	21.9	28.4	63	17.4	6	14	270	0.00	30.148 
14:25	29.0	23.6	29.0	64	18.4	5	11	270	0.00	30.147 
14:30	28.8	22.4	28.8	61	17.1	6	15	270	0.00	30.145 
14:35	28.8	24.4	28.8	61	17.1	4	8	270	0.00	30.145 
14:40	29.3	25.0	29.3	62	17.9	4	12	270	0.00	30.138 
14:45	29.4	25.1	29.4	61	17.6	4	13	270	0.00	30.130 
14:50	29.3	23.0	29.3	58	16.4	6	14	270	0.00	30.129 
14:55	29.3	25.0	29.3	59	16.8	4	9	270	0.00	30.126 
15:00	29.4	25.1	29.4	61	17.6	4	12	270	0.00	30.127 
15:05	29.7	24.4	29.7	58	16.8	5	17	270	0.00	30.126 
15:10	29.8	25.5	29.8	59	17.2	4	9	270	0.00	30.128 
15:15	30.1	25.9	30.1	59	17.5	4	8	270	0.00	30.125 
15:20	30.1	24.0	30.1	59	17.5	6	16	248	0.00	30.128 
15:25	30.0	24.7	30.0	58	17.0	5	11	270	0.00	30.129 
15:30	30.1	24.8	30.1	59	17.5	5	13	270	0.00	30.127 
15:35	30.1	24.0	30.1	59	17.5	6	14	270	0.00	30.122 
15:40	30.1	24.8	30.1	56	16.3	5	17	270	0.00	30.123 
15:45	30.1	24.8	30.1	58	17.1	5	13	270	0.00	30.123 
15:50	30.3	25.1	30.3	58	17.3	5	14	270	0.00	30.123 
15:55	30.3	25.1	30.3	58	17.3	5	15	270	0.00	30.127 
16:00	30.4	25.2	30.4	57	17.0	5	13	270	0.00	30.127 
16:05	30.4	24.3	30.4	56	16.6	6	14	270	0.00	30.129 
16:10	30.1	24.8	30.1	59	17.5	5	13	270	0.00	30.126 
16:15	29.8	25.5	29.8	60	17.6	4	9	270	0.00	30.129 
16:20	29.5	24.1	29.5	59	17.0	5	12	270	0.00	30.131 
16:25	29.3	23.0	29.3	58	16.4	6	13	270	0.00	30.132 
16:30	29.3	23.9	29.3	59	16.8	5	16	270	0.00	30.131 
16:35	29.1	23.7	29.1	58	16.2	5	13	270	0.00	30.130 
16:40	29.1	23.7	29.1	59	16.6	5	11	270	0.00	30.133 
16:45	29.0	23.6	29.0	58	16.1	5	11	270	0.00	30.133 
16:50	29.0	24.6	29.0	58	16.1	4	13	270	0.00	30.132 
16:55	29.0	24.6	29.0	59	16.5	4	10	270	0.00	30.130 
17:00	28.8	23.3	28.8	60	16.7	5	11	270	0.00	30.131 
17:05	28.8	24.4	28.8	60	16.7	4	12	270	0.00	30.131 
17:10	28.8	28.8	28.8	61	17.1	3	6	270	0.00	30.131 
17:15	28.7	23.2	28.7	59	16.2	5	11	270	0.00	30.130 
17:20	28.5	23.0	28.5	58	15.6	5	15	270	0.00	30.127 
17:25	28.4	22.8	28.4	58	15.5	5	12	270	0.00	30.127 
17:30	28.2	28.2	28.2	59	15.7	3	12	270	0.00	30.129 
17:35	28.1	23.6	28.1	59	15.6	4	10	270	0.00	30.126 
17:40	28.1	23.6	28.1	59	15.6	4	12	270	0.00	30.130 
17:45	27.9	27.9	27.9	60	15.8	2	5	270	0.00	30.132 
17:50	27.8	27.8	27.8	61	16.1	3	12	270	0.00	30.133 
17:55	27.8	27.8	27.8	61	16.1	3	5	270	0.00	30.135 
18:00	27.6	27.6	27.6	61	15.9	2	5	270	0.00	30.144 
18:05	27.6	23.0	27.6	61	15.9	4	9	270	0.00	30.148 
18:10	27.6	23.0	27.6	61	15.9	4	12	270	0.00	30.146 
18:15	27.6	27.6	27.6	61	15.9	3	6	270	0.00	30.147 
18:20	27.5	27.5	27.5	61	15.8	3	6	270	0.00	30.148 
18:25	27.3	27.3	27.3	62	16.0	2	5	270	0.00	30.152 
18:30	27.2	27.2	27.2	62	15.9	3	9	270	0.00	30.152 
18:35	27.0	27.0	27.0	63	16.1	3	10	270	0.00	30.153 
18:40	26.9	26.9	26.9	63	16.0	2	5	270	0.00	30.155 
18:45	26.9	26.9	26.9	63	16.0	3	5	270	0.00	30.157 
18:50	26.9	26.9	26.9	63	16.0	2	7	270	0.00	30.156 
18:55	26.7	26.7	26.7	63	15.8	3	10	270	0.00	30.156 
19:00	26.7	26.7	26.7	63	15.8	2	7	270	0.00	30.155 
19:05	26.6	26.6	26.6	63	15.7	2	5	270	0.00	30.155 
19:10	26.4	26.4	26.4	63	15.5	3	5	270	0.00	30.156 
19:15	26.4	26.4	26.4	62	15.2	3	7	270	0.00	30.153 
19:20	26.6	26.6	26.6	61	15.0	3	7	270	0.00	30.155 
19:25	26.6	26.6	26.6	60	14.6	3	6	270	0.00	30.157 
19:30	26.6	26.6	26.6	60	14.6	3	6	270	0.00	30.158 
19:35	26.6	26.6	26.6	60	14.6	3	9	270	0.00	30.158 
19:40	26.4	26.4	26.4	61	14.8	3	9	270	0.00	30.163 
19:45	26.4	26.4	26.4	62	15.2	3	7	270	0.00	30.162 
19:50	26.4	26.4	26.4	62	15.2	2	5	270	0.00	30.163 
19:55	26.3	26.3	26.3	63	15.4	2	4	248	0.00	30.165 
20:00	26.1	26.1	26.1	64	15.6	1	5	270	0.00	30.166 
20:05	26.0	26.0	26.0	65	15.9	1	4	270	0.00	30.167 
20:10	25.8	25.8	25.8	65	15.7	1	2	248	0.00	30.168 
20:15	25.7	25.7	25.7	66	15.9	2	6	248	0.00	30.169 
20:20	25.8	25.8	25.8	66	16.0	2	6	270	0.00	30.170 
20:25	25.8	25.8	25.8	67	16.4	2	5	270	0.00	30.174 
20:30	25.7	25.7	25.7	68	16.6	1	4	248	0.00	30.177 
20:35	25.6	25.6	25.6	68	16.5	2	4	270	0.00	30.180 
20:40	25.6	25.6	25.6	68	16.5	1	4	292	0.00	30.179 
20:45	25.6	25.6	25.6	68	16.5	2	9	270	0.00	30.180 
20:50	25.6	25.6	25.6	68	16.5	2	6	270	0.00	30.181 
20:55	25.7	25.7	25.7	67	16.3	2	5	270	0.00	30.182 
21:00	25.7	25.7	25.7	67	16.3	1	4	270	0.00	30.183 
21:05	25.8	25.8	25.8	67	16.4	3	6	270	0.00	30.182 
21:10	26.0	26.0	26.0	67	16.6	3	6	270	0.00	30.182 
21:15	26.0	26.0	26.0	66	16.2	3	6	270	0.00	30.182 
21:20	26.0	26.0	26.0	66	16.2	2	7	270	0.00	30.183 
21:25	26.0	26.0	26.0	66	16.2	3	6	292	0.00	30.184 
21:30	26.0	26.0	26.0	66	16.2	2	5	270	0.00	30.187 
21:35	26.0	26.0	26.0	65	15.9	3	11	270	0.00	30.185 
21:40	26.0	26.0	26.0	65	15.9	3	9	292	0.00	30.186 
21:45	25.8	25.8	25.8	64	15.3	3	7	270	0.00	30.186 
21:50	25.7	25.7	25.7	65	15.6	2	6	292	0.00	30.189 
21:55	25.4	25.4	25.4	65	15.3	2	6	292	0.00	30.186 
22:00	25.3	25.3	25.3	65	15.2	2	5	270	0.00	30.191 
22:05	25.1	25.1	25.1	66	15.4	2	5	270	0.00	30.190 
22:10	25.0	25.0	25.0	66	15.3	1	4	270	0.00	30.192 
22:15	24.8	24.8	24.8	66	15.1	1	5	270	0.00	30.195 
22:20	24.7	24.7	24.7	66	15.0	1	4	315	0.00	30.198 
22:25	24.5	24.5	24.5	67	15.1	1	4	270	0.00	30.199 
22:30	24.4	24.4	24.4	67	15.0	2	6	270	0.00	30.201 
22:35	24.4	24.4	24.4	67	15.0	1	3	248	0.00	30.205 
22:40	24.2	24.2	24.2	68	15.2	1	4	248	0.00	30.211 
22:45	24.1	24.1	24.1	68	15.1	1	4	270	0.00	30.211 
22:50	23.9	23.9	23.9	68	14.9	1	3	270	0.00	30.213 
22:55	23.9	23.9	23.9	68	14.9	1	3	248	0.00	30.214 
23:00	23.8	23.8	23.8	68	14.8	1	4	270	0.00	30.215 
23:05	23.6	23.6	23.6	68	14.6	1	3	270	0.00	30.217 
23:10	23.5	23.5	23.5	68	14.5	1	3	270	0.00	30.217 
23:15	23.3	23.3	23.3	69	14.7	0	2	270	0.00	30.219 
23:20	23.2	23.2	23.2	69	14.6	0	3	248	0.00	30.219 
23:25	23.2	23.2	23.2	70	14.9	0	2	248	0.00	30.219 
23:30	23.0	23.0	23.0	70	14.7	0	1	270	0.00	30.225 
23:35	22.9	22.9	22.9	70	14.6	0	2	270	0.00	30.225 
23:40	22.7	22.7	22.7	71	14.7	0	2	270	0.00	30.230 
23:45	22.7	22.7	22.7	71	14.7	0	2	270	0.00	30.231 
23:50	22.5	22.5	22.5	71	14.5	0	2	270	0.00	30.231 
23:55	22.5	22.5	22.5	71	14.5	0	2	270	0.00	30.231 

CoCoRaHS
IN-AL-39
A2 Web Hosting
Creative Commons License
GoDaddy
Look for:

loaded 2017-12-12 01:31:38 • last modified 2010-11-18 10:43:29
Privacy PolicyDisclaimer
• wx.awcolley.com is powered by PmWiki v.2002016 •
• all content (unless otherwise noted) © 2017 A W Colley